Time;durP1;ratioP1;P1;durP2;ratioP2;P2;SDS_P1;SDS_P2;PMS_P1;PMS_P2;Temp;Humidity;BMP_temperature;BMP_pressure;BME280_temperature;BME280_humidity;BME280_pressure;Samples;Min_cycle;Max_cycle;Signal;HPM_P1;HPM_P2
2021/09/19 00:01:51;;;;;;;23.93;18.67;;;19.80;99.90;;;;;;6277657;22;20160;-88
2021/09/19 00:04:16;;;;;;;21.87;17.90;;;19.80;99.90;;;;;;6278027;22;20133;-80
2021/09/19 00:06:42;;;;;;;22.03;17.53;;;19.80;99.90;;;;;;6277415;22;20144;-80
2021/09/19 00:09:08;;;;;;;22.60;17.97;;;19.80;99.90;;;;;;6275359;22;20141;-81
2021/09/19 00:11:33;;;;;;;22.47;18.97;;;19.70;99.90;;;;;;6248380;22;20516;-86
2021/09/19 00:13:59;;;;;;;23.20;18.83;;;19.50;99.90;;;;;;6250210;22;20150;-78
2021/09/19 00:16:25;;;;;;;23.80;18.77;;;19.70;99.90;;;;;;6277229;22;20137;-80
2021/09/19 00:18:50;;;;;;;22.63;17.93;;;19.50;99.90;;;;;;6278206;22;20162;-91
2021/09/19 00:21:16;;;;;;;22.13;17.63;;;19.30;99.90;;;;;;6251127;22;20154;-88
2021/09/19 00:23:41;;;;;;;22.13;17.37;;;19.10;99.90;;;;;;6251209;22;20156;-91
2021/09/19 00:26:07;;;;;;;22.03;17.80;;;19.20;99.90;;;;;;6250432;22;20209;-91
2021/09/19 00:28:33;;;;;;;26.00;20.30;;;19.20;99.90;;;;;;6276550;22;20160;-83
2021/09/19 00:30:58;;;;;;;21.73;18.37;;;19.50;99.90;;;;;;6277570;22;20173;-86
2021/09/19 00:33:24;;;;;;;24.53;19.33;;;19.40;99.90;;;;;;6250170;22;20159;-91
2021/09/19 00:35:50;;;;;;;23.47;18.93;;;19.40;99.90;;;;;;6277265;22;20138;-91
2021/09/19 00:38:15;;;;;;;25.90;20.17;;;19.20;99.90;;;;;;6250136;22;20557;-77
2021/09/19 00:40:42;;;;;;;26.40;19.17;;;19.20;99.90;;;;;;6250437;22;20149;-83
2021/09/19 00:43:07;;;;;;;25.03;19.33;;;19.30;99.90;;;;;;6277255;22;20136;-82
2021/09/19 00:45:33;;;;;;;26.77;19.57;;;19.20;99.90;;;;;;6277135;22;20591;-78
2021/09/19 00:47:59;;;;;;;24.23;18.73;;;19.30;99.90;;;;;;6277208;22;20139;-79
2021/09/19 00:50:26;;;;;;;23.73;18.20;;;19.30;99.90;;;;;;6276998;22;20179;-80
2021/09/19 00:52:52;;;;;;;24.80;18.63;;;19.20;99.90;;;;;;6276940;22;20145;-89
2021/09/19 00:55:19;;;;;;;26.07;19.93;;;19.30;99.90;;;;;;6249962;22;20152;-89
2021/09/19 00:57:47;;;;;;;22.83;17.90;;;19.30;99.90;;;;;;6276702;22;20173;-90
2021/09/19 01:00:16;;;;;;;22.83;18.20;;;19.00;99.90;;;;;;6250124;22;20149;-89
2021/09/19 01:02:43;;;;;;;22.37;18.13;;;19.10;99.90;;;;;;6276971;22;20138;-90
2021/09/19 01:05:12;;;;;;;22.10;18.07;;;19.00;99.90;;;;;;6250814;22;20143;-90
2021/09/19 01:07:38;;;;;;;22.40;18.20;;;18.80;99.90;;;;;;6249940;22;20160;-89
2021/09/19 01:10:05;;;;;;;28.83;18.97;;;18.70;99.90;;;;;;6276076;22;20573;-88
2021/09/19 01:12:32;;;;;;;23.67;18.73;;;18.70;99.90;;;;;;6248896;22;20153;-90
2021/09/19 01:14:59;;;;;;;25.47;18.60;;;18.90;99.90;;;;;;6276479;22;20134;-89
2021/09/19 01:17:25;;;;;;;25.47;18.00;;;18.80;99.90;;;;;;6276873;22;20185;-87
2021/09/19 01:19:55;;;;;;;21.50;19.00;;;18.70;99.90;;;;;;6249558;22;20220;-89
2021/09/19 01:22:29;;;;;;;23.33;18.77;;;18.70;99.90;;;;;;6250154;22;20578;-89
2021/09/19 01:24:54;;;;;;;22.70;18.40;;;18.70;99.90;;;;;;6249180;22;20145;-89
2021/09/19 01:27:20;;;;;;;25.60;18.50;;;18.50;99.90;;;;;;6276821;22;20383;-90
2021/09/19 01:29:46;;;;;;;23.07;18.03;;;18.50;99.90;;;;;;6276275;22;20137;-90
2021/09/19 01:32:11;;;;;;;23.50;18.27;;;18.40;99.90;;;;;;6249998;22;20482;-88
2021/09/19 01:34:37;;;;;;;24.00;19.23;;;18.40;99.90;;;;;;6249147;22;20209;-90
2021/09/19 01:37:04;;;;;;;24.10;19.33;;;18.50;99.90;;;;;;6249881;22;20730;-89
2021/09/19 01:39:30;;;;;;;25.57;19.00;;;18.60;99.90;;;;;;6276835;22;20178;-89
2021/09/19 01:41:56;;;;;;;23.90;19.47;;;18.70;99.90;;;;;;6277174;22;20141;-88
2021/09/19 01:44:22;;;;;;;25.17;18.93;;;19.00;99.90;;;;;;6277002;22;20577;-90
2021/09/19 01:46:48;;;;;;;24.90;20.17;;;18.70;99.90;;;;;;6276765;22;20159;-90
2021/09/19 01:49:14;;;;;;;23.33;18.37;;;18.60;99.90;;;;;;6276571;22;20161;-86
2021/09/19 01:51:39;;;;;;;24.10;18.73;;;18.50;99.90;;;;;;6277034;22;20150;-90
2021/09/19 01:54:05;;;;;;;23.67;18.93;;;18.40;99.90;;;;;;6276564;22;20572;-88
2021/09/19 01:56:32;;;;;;;25.63;19.10;;;18.30;99.90;;;;;;6248943;22;20174;-87
2021/09/19 01:58:57;;;;;;;25.67;19.10;;;18.50;99.90;;;;;;6249607;22;20258;-89
2021/09/19 02:01:24;;;;;;;23.27;17.97;;;18.60;99.90;;;;;;6249633;22;20585;-90
2021/09/19 02:03:51;;;;;;;25.00;19.00;;;18.40;99.90;;;;;;6276932;22;20466;-89
2021/09/19 02:06:17;;;;;;;23.23;19.33;;;18.50;99.90;;;;;;6276645;22;20263;-90
2021/09/19 02:08:43;;;;;;;22.83;18.70;;;18.50;99.90;;;;;;6276273;22;20174;-89
2021/09/19 02:11:12;;;;;;;26.77;19.03;;;18.50;99.90;;;;;;6250034;22;20143;-90
2021/09/19 02:13:40;;;;;;;22.70;18.37;;;18.40;99.90;;;;;;6249810;22;20159;-88
2021/09/19 02:16:06;;;;;;;21.53;18.27;;;18.20;99.90;;;;;;6282101;22;20134;-90
2021/09/19 02:18:32;;;;;;;24.43;18.53;;;18.00;99.90;;;;;;6261029;22;20176;-87
2021/09/19 02:20:59;;;;;;;23.67;18.07;;;18.10;99.90;;;;;;6277276;22;20168;-77
2021/09/19 02:23:26;;;;;;;23.53;18.27;;;18.10;99.90;;;;;;6276125;22;20160;-80
2021/09/19 02:25:51;;;;;;;21.97;17.67;;;18.10;99.90;;;;;;6250324;22;20185;-79
2021/09/19 02:28:19;;;;;;;26.60;18.10;;;18.10;99.90;;;;;;6277652;22;20140;-83
2021/09/19 02:30:45;;;;;;;21.77;18.03;;;18.00;99.90;;;;;;6276873;22;20168;-88
2021/09/19 02:33:11;;;;;;;23.67;17.87;;;18.00;99.90;;;;;;6251709;22;20144;-90
2021/09/19 02:35:37;;;;;;;23.97;19.33;;;17.80;99.90;;;;;;6251265;22;20147;-90
2021/09/19 02:38:03;;;;;;;22.13;17.97;;;17.70;99.90;;;;;;6277495;22;20634;-89
2021/09/19 02:40:29;;;;;;;22.60;18.43;;;17.80;99.90;;;;;;6252231;22;20230;-90
2021/09/19 02:42:55;;;;;;;23.40;18.23;;;17.90;99.90;;;;;;6251840;22;20183;-89
2021/09/19 02:45:22;;;;;;;23.57;18.40;;;17.70;99.90;;;;;;6251085;22;20174;-89
2021/09/19 02:47:47;;;;;;;22.63;18.27;;;17.70;99.90;;;;;;6251170;22;20152;-90
2021/09/19 02:50:16;;;;;;;26.73;19.10;;;17.60;99.90;;;;;;6250444;22;20540;-90
2021/09/19 02:52:42;;;;;;;25.83;20.03;;;17.70;99.90;;;;;;6278225;22;20148;-90
2021/09/19 02:55:08;;;;;;;25.40;19.07;;;17.70;99.90;;;;;;6278660;22;20668;-89
2021/09/19 02:57:34;;;;;;;23.00;18.80;;;17.70;99.90;;;;;;6277905;22;20210;-90
2021/09/19 03:00:00;;;;;;;24.33;18.57;;;17.80;99.90;;;;;;6278855;22;20163;-89
2021/09/19 03:02:25;;;;;;;24.63;18.83;;;17.80;99.90;;;;;;6277893;22;20139;-88
2021/09/19 03:04:51;;;;;;;23.27;18.50;;;17.70;99.90;;;;;;6278510;22;20142;-88
2021/09/19 03:07:16;;;;;;;24.70;19.90;;;17.70;99.90;;;;;;6251200;22;20152;-90
2021/09/19 03:09:42;;;;;;;22.30;18.60;;;17.70;99.90;;;;;;6277631;22;20128;-89
2021/09/19 03:12:08;;;;;;;24.53;18.60;;;17.80;99.90;;;;;;6278189;22;20147;-90
2021/09/19 03:14:33;;;;;;;22.37;18.73;;;17.70;99.90;;;;;;6278145;22;20158;-90
2021/09/19 03:16:59;;;;;;;24.53;19.43;;;17.60;99.90;;;;;;6250953;22;20179;-89
2021/09/19 03:19:25;;;;;;;22.70;18.33;;;17.60;99.90;;;;;;6250711;22;20150;-86
2021/09/19 03:21:50;;;;;;;23.90;18.37;;;17.60;99.90;;;;;;6277515;22;20623;-89
2021/09/19 03:24:16;;;;;;;21.80;18.90;;;17.80;99.90;;;;;;6277802;22;20206;-84
2021/09/19 03:26:41;;;;;;;22.90;18.17;;;17.70;99.90;;;;;;6276854;22;20141;-89
2021/09/19 03:29:07;;;;;;;22.87;18.40;;;17.50;99.90;;;;;;6277780;22;20605;-78
2021/09/19 03:31:33;;;;;;;24.07;18.43;;;17.60;99.90;;;;;;6277580;22;20190;-90
2021/09/19 03:33:58;;;;;;;24.00;18.20;;;17.50;99.90;;;;;;6251185;22;20147;-90
2021/09/19 03:36:24;;;;;;;19.13;16.83;;;17.40;99.90;;;;;;6275288;22;20135;-82
2021/09/19 03:38:49;;;;;;;22.70;18.17;;;17.30;99.90;;;;;;6248878;22;20468;-85
2021/09/19 03:41:15;;;;;;;20.90;18.10;;;17.30;99.90;;;;;;6249224;22;20148;-89
2021/09/19 03:43:41;;;;;;;23.20;18.53;;;17.30;99.90;;;;;;6277926;22;20162;-89
2021/09/19 03:46:07;;;;;;;24.20;18.40;;;17.40;99.90;;;;;;6277501;22;20131;-90
2021/09/19 03:48:33;;;;;;;24.73;18.47;;;17.20;99.90;;;;;;6277458;22;20136;-88
2021/09/19 03:50:59;;;;;;;22.17;17.67;;;17.10;99.90;;;;;;6251136;22;20147;-89
2021/09/19 03:53:25;;;;;;;23.90;19.13;;;17.10;99.90;;;;;;6278062;22;20185;-77
2021/09/19 03:55:51;;;;;;;26.37;18.63;;;17.20;99.90;;;;;;6276867;22;20143;-77
2021/09/19 03:58:17;;;;;;;24.70;18.77;;;17.40;99.90;;;;;;6250405;22;20653;-79
2021/09/19 04:00:43;;;;;;;24.03;18.40;;;17.20;99.90;;;;;;6250074;22;20583;-89
2021/09/19 04:03:08;;;;;;;21.73;17.27;;;17.10;99.90;;;;;;6276565;22;20486;-85
2021/09/19 04:05:36;;;;;;;22.17;18.73;;;17.10;99.90;;;;;;6249112;22;20143;-89
2021/09/19 04:08:04;;;;;;;22.70;18.43;;;17.00;99.90;;;;;;6275489;22;20871;-88
2021/09/19 04:10:31;;;;;;;22.27;18.00;;;16.90;99.90;;;;;;6275400;22;20135;-87
2021/09/19 04:12:56;;;;;;;21.80;17.27;;;16.90;99.90;;;;;;6276470;22;20134;-88
2021/09/19 04:15:22;;;;;;;23.57;19.00;;;16.90;99.90;;;;;;6277086;22;20145;-81
2021/09/19 04:17:47;;;;;;;21.10;18.07;;;17.00;99.90;;;;;;6249388;22;20205;-77
2021/09/19 04:20:13;;;;;;;23.23;18.63;;;17.10;99.90;;;;;;6249833;22;20663;-78
2021/09/19 04:22:40;;;;;;;23.03;19.30;;;17.30;99.90;;;;;;6276928;22;20538;-78
2021/09/19 04:25:07;;;;;;;23.27;18.27;;;17.30;99.90;;;;;;6277524;22;20131;-79
2021/09/19 04:27:33;;;;;;;23.20;18.53;;;17.40;99.90;;;;;;6276667;22;20142;-81
2021/09/19 04:29:58;;;;;;;27.03;19.13;;;17.20;99.90;;;;;;6249697;22;20147;-77
2021/09/19 04:32:24;;;;;;;20.70;17.80;;;16.90;99.90;;;;;;6276529;22;20167;-89
2021/09/19 04:34:50;;;;;;;22.47;17.37;;;16.80;99.90;;;;;;6249376;22;20142;-86
2021/09/19 04:37:16;;;;;;;24.37;18.57;;;16.60;99.90;;;;;;6249798;22;20182;-88
2021/09/19 04:39:43;;;;;;;22.37;18.13;;;16.60;99.90;;;;;;6276239;22;20135;-88
2021/09/19 04:42:09;;;;;;;27.07;19.40;;;16.70;99.90;;;;;;6276954;22;20198;-85
2021/09/19 04:44:35;;;;;;;21.27;17.67;;;16.70;99.90;;;;;;6275903;22;20178;-84
2021/09/19 04:47:01;;;;;;;22.10;17.67;;;16.60;99.90;;;;;;6249640;22;20153;-84
2021/09/19 04:49:26;;;;;;;23.57;18.27;;;16.60;99.90;;;;;;6275996;22;20537;-88
2021/09/19 04:51:52;;;;;;;22.80;17.63;;;16.60;99.90;;;;;;6274975;22;20147;-80
2021/09/19 04:54:18;;;;;;;23.67;18.50;;;16.50;99.90;;;;;;6274549;22;20186;-77
2021/09/19 04:56:43;;;;;;;25.57;18.00;;;16.50;99.90;;;;;;6247693;22;20181;-80
2021/09/19 04:59:09;;;;;;;25.23;18.57;;;16.60;99.90;;;;;;6276290;22;20467;-77
2021/09/19 05:01:34;;;;;;;21.20;17.70;;;16.60;99.90;;;;;;6276321;22;20138;-78
2021/09/19 05:04:00;;;;;;;25.00;17.87;;;16.60;99.90;;;;;;6276511;22;20141;-89
2021/09/19 05:06:26;;;;;;;22.33;18.23;;;16.70;99.90;;;;;;6276711;22;20134;-82
2021/09/19 05:08:51;;;;;;;23.43;17.93;;;16.70;99.90;;;;;;6275999;22;20529;-88
2021/09/19 05:11:17;;;;;;;22.73;18.83;;;16.70;99.90;;;;;;6249414;22;20633;-82
2021/09/19 05:13:42;;;;;;;21.00;17.33;;;16.70;99.90;;;;;;6276650;22;20137;-89
2021/09/19 05:16:08;;;;;;;23.90;18.40;;;16.50;99.90;;;;;;6276615;22;20653;-89
2021/09/19 05:18:34;;;;;;;21.67;17.47;;;16.60;99.90;;;;;;6277402;22;20181;-90
2021/09/19 05:21:00;;;;;;;22.87;17.40;;;16.50;99.90;;;;;;6277047;22;20447;-90
2021/09/19 05:23:27;;;;;;;22.57;18.90;;;16.60;99.90;;;;;;6276835;22;20134;-90
2021/09/19 05:25:52;;;;;;;25.77;17.97;;;16.80;99.90;;;;;;6276633;22;20134;-91
2021/09/19 05:28:18;;;;;;;25.77;17.67;;;16.90;99.90;;;;;;6276386;22;20131;-91
2021/09/19 05:30:45;;;;;;;23.67;18.93;;;16.80;99.90;;;;;;6276961;22;20188;-92
2021/09/19 05:33:11;;;;;;;25.90;19.47;;;16.70;99.90;;;;;;6249949;22;20150;-91
2021/09/19 05:35:36;;;;;;;23.93;18.67;;;16.60;99.90;;;;;;6249998;22;20146;-90
2021/09/19 05:38:06;;;;;;;27.17;18.63;;;16.60;99.90;;;;;;6276717;22;20258;-87
2021/09/19 05:40:33;;;;;;;24.57;18.33;;;16.50;99.90;;;;;;6249389;22;20149;-88
2021/09/19 05:43:01;;;;;;;25.27;18.60;;;16.50;99.90;;;;;;6277007;22;20142;-91
2021/09/19 05:45:27;;;;;;;24.87;18.50;;;16.50;99.90;;;;;;6278638;22;20189;-82
2021/09/19 05:47:53;;;;;;;23.33;18.97;;;16.40;99.90;;;;;;6250145;22;20145;-90
2021/09/19 05:50:19;;;;;;;23.63;18.97;;;16.40;99.90;;;;;;6250400;22;20224;-83
2021/09/19 05:52:44;;;;;;;25.43;19.47;;;16.50;99.90;;;;;;6250356;22;20594;-88
2021/09/19 05:55:10;;;;;;;24.83;18.03;;;16.50;99.90;;;;;;6277389;22;20162;-91
2021/09/19 05:57:36;;;;;;;24.43;18.27;;;16.30;99.90;;;;;;6278639;22;20177;-89
2021/09/19 06:00:02;;;;;;;25.47;19.00;;;16.40;99.90;;;;;;6277489;22;20145;-86
2021/09/19 06:02:28;;;;;;;25.47;19.30;;;16.60;99.90;;;;;;6277194;22;20204;-91
2021/09/19 06:04:53;;;;;;;24.23;19.17;;;16.50;99.90;;;;;;6278750;22;20137;-86
2021/09/19 06:07:19;;;;;;;26.10;19.23;;;16.60;99.90;;;;;;6278815;22;20137;-85
2021/09/19 06:09:45;;;;;;;22.30;18.00;;;16.60;99.90;;;;;;6251109;22;20192;-83
2021/09/19 06:12:10;;;;;;;26.43;19.93;;;16.50;99.90;;;;;;6278285;22;20140;-78
2021/09/19 06:14:36;;;;;;;27.37;19.27;;;16.50;99.90;;;;;;6279106;22;20144;-81
2021/09/19 06:17:02;;;;;;;24.07;19.17;;;16.50;99.90;;;;;;6278954;22;20257;-86
2021/09/19 06:19:27;;;;;;;22.97;18.77;;;16.50;99.90;;;;;;6251858;22;20173;-81
2021/09/19 06:21:53;;;;;;;26.63;19.40;;;16.50;99.90;;;;;;6278907;22;20568;-83
2021/09/19 06:24:18;;;;;;;27.13;18.63;;;16.40;99.90;;;;;;6257450;22;20200;-87
2021/09/19 06:26:44;;;;;;;26.23;18.83;;;16.50;99.90;;;;;;6292283;22;20145;-89
2021/09/19 06:29:09;;;;;;;22.63;19.13;;;16.40;99.90;;;;;;6261312;22;20146;-91
2021/09/19 06:31:35;;;;;;;24.23;19.43;;;16.40;99.90;;;;;;6278818;22;20224;-91
2021/09/19 06:34:01;;;;;;;24.37;18.97;;;16.50;99.90;;;;;;6279332;22;20146;-91
2021/09/19 06:36:27;;;;;;;24.10;18.93;;;16.40;99.90;;;;;;6252524;22;20230;-83
2021/09/19 06:38:52;;;;;;;22.50;18.10;;;16.40;99.90;;;;;;6253147;22;20150;-86
2021/09/19 06:41:18;;;;;;;24.93;19.10;;;16.40;99.90;;;;;;6250744;22;20292;-89
2021/09/19 06:43:44;;;;;;;28.23;19.97;;;16.60;99.90;;;;;;6276262;22;20141;-87
2021/09/19 06:46:12;;;;;;;26.80;19.23;;;16.80;99.90;;;;;;6254596;22;20163;-77
2021/09/19 06:48:38;;;;;;;23.03;18.87;;;16.60;99.90;;;;;;6250814;22;20161;-88
2021/09/19 06:51:03;;;;;;;23.60;19.13;;;16.70;99.90;;;;;;6251473;22;20554;-92
2021/09/19 06:53:29;;;;;;;27.07;19.80;;;16.90;99.90;;;;;;6250887;22;20138;-89
2021/09/19 06:55:55;;;;;;;23.27;19.03;;;16.90;99.90;;;;;;6278006;22;20583;-84
2021/09/19 06:58:20;;;;;;;23.87;19.07;;;16.80;99.90;;;;;;6250587;22;20179;-88
2021/09/19 07:00:46;;;;;;;26.97;19.27;;;16.80;99.90;;;;;;6277649;22;20162;-92
2021/09/19 07:03:11;;;;;;;25.40;19.13;;;16.80;99.90;;;;;;6277931;22;20563;-86
2021/09/19 07:05:37;;;;;;;24.00;19.17;;;16.90;99.90;;;;;;6251150;22;20197;-91
2021/09/19 07:08:03;;;;;;;25.90;19.57;;;16.90;99.90;;;;;;6249297;22;20194;-92
2021/09/19 07:10:29;;;;;;;24.20;18.53;;;17.00;99.90;;;;;;6275117;22;20138;-89
2021/09/19 07:12:54;;;;;;;25.37;19.13;;;17.00;99.90;;;;;;6278248;22;20153;-92
2021/09/19 07:15:20;;;;;;;25.97;19.47;;;17.00;99.90;;;;;;6250631;22;20281;-89
2021/09/19 07:17:46;;;;;;;26.90;20.03;;;17.00;99.90;;;;;;6249953;22;20233;-85
2021/09/19 07:20:11;;;;;;;25.03;19.03;;;17.30;99.90;;;;;;6249532;22;20165;-83
2021/09/19 07:22:40;;;;;;;26.57;19.93;;;17.40;99.90;;;;;;6250966;22;20169;-90
2021/09/19 07:25:06;;;;;;;24.40;19.70;;;17.20;99.90;;;;;;6278846;22;20518;-92
2021/09/19 07:27:32;;;;;;;23.90;19.77;;;17.40;99.90;;;;;;6277370;22;20207;-87
2021/09/19 07:30:00;;;;;;;25.57;19.60;;;17.40;99.90;;;;;;6277608;22;20166;-92
2021/09/19 07:32:26;;;;;;;24.60;18.83;;;17.50;99.90;;;;;;6277720;22;20504;-89
2021/09/19 07:34:51;;;;;;;24.20;18.83;;;17.50;99.90;;;;;;6277674;22;20162;-90
2021/09/19 07:37:19;;;;;;;23.67;20.10;;;17.40;99.90;;;;;;6278108;22;20253;-89
2021/09/19 07:39:46;;;;;;;24.23;18.93;;;17.50;99.90;;;;;;6251111;22;20143;-91
2021/09/19 07:42:12;;;;;;;27.23;19.53;;;17.40;99.90;;;;;;6271292;22;20143;-83
2021/09/19 07:44:38;;;;;;;25.60;19.47;;;17.50;99.90;;;;;;6275568;22;20131;-92
2021/09/19 07:47:05;;;;;;;21.57;18.53;;;17.50;99.90;;;;;;6249598;22;20155;-84
2021/09/19 07:49:30;;;;;;;22.47;18.40;;;17.50;99.90;;;;;;6250498;22;20171;-88
2021/09/19 07:51:57;;;;;;;22.67;18.10;;;17.50;99.90;;;;;;6277684;22;20234;-87
2021/09/19 07:54:23;;;;;;;25.57;19.57;;;17.60;99.90;;;;;;6279204;22;20165;-89
2021/09/19 07:56:48;;;;;;;26.53;19.20;;;17.60;99.90;;;;;;6280211;22;20169;-86
2021/09/19 07:59:14;;;;;;;25.33;20.53;;;17.70;99.90;;;;;;6254891;22;20219;-91
2021/09/19 08:01:40;;;;;;;24.67;19.10;;;17.90;99.90;;;;;;6254623;22;20158;-85
2021/09/19 08:04:05;;;;;;;26.87;19.90;;;18.00;99.90;;;;;;6279570;22;20140;-85
2021/09/19 08:06:31;;;;;;;26.63;19.13;;;18.00;99.90;;;;;;6279937;22;20467;-86
2021/09/19 08:08:57;;;;;;;24.63;19.93;;;18.00;99.90;;;;;;6278795;22;20569;-87
2021/09/19 08:11:22;;;;;;;24.40;19.27;;;18.10;99.90;;;;;;6277434;22;20187;-93
2021/09/19 08:13:51;;;;;;;24.13;19.07;;;18.20;99.90;;;;;;6250921;22;20158;-88
2021/09/19 08:16:17;;;;;;;22.63;18.57;;;18.30;99.90;;;;;;6277087;22;20158;-91
2021/09/19 08:18:42;;;;;;;24.37;18.67;;;18.40;99.90;;;;;;6276613;22;20625;-92
2021/09/19 08:21:08;;;;;;;24.67;18.60;;;18.60;99.90;;;;;;6291577;22;20145;-95
2021/09/19 08:23:33;;;;;;;25.43;18.83;;;18.70;99.90;;;;;;6289070;22;20149;-93
2021/09/19 08:25:59;;;;;;;24.07;18.83;;;18.70;99.90;;;;;;6253252;22;20154;-91
2021/09/19 08:28:25;;;;;;;23.90;17.90;;;18.80;99.90;;;;;;6277609;22;20141;-93
2021/09/19 08:30:52;;;;;;;24.57;18.53;;;18.90;99.90;;;;;;6250611;22;20224;-89
2021/09/19 08:33:17;;;;;;;22.77;17.50;;;18.90;99.90;;;;;;6276950;22;20137;-91
2021/09/19 08:35:43;;;;;;;22.30;18.23;;;19.00;99.90;;;;;;6254878;22;20231;-88
2021/09/19 08:38:09;;;;;;;22.33;17.97;;;19.20;99.90;;;;;;6251766;22;20181;-94
2021/09/19 08:40:35;;;;;;;26.07;18.93;;;19.20;99.90;;;;;;6250270;22;20200;-92
2021/09/19 08:43:01;;;;;;;22.90;17.50;;;19.40;99.90;;;;;;6245429;22;20287;-93
2021/09/19 08:45:26;;;;;;;22.63;17.27;;;19.40;99.90;;;;;;6250884;22;20149;-92
2021/09/19 08:47:52;;;;;;;20.53;16.60;;;19.40;99.90;;;;;;6282814;22;20157;-93
2021/09/19 08:50:20;;;;;;;24.07;18.37;;;19.40;99.90;;;;;;6289390;22;20162;-93
2021/09/19 08:52:46;;;;;;;21.87;17.37;;;19.60;99.90;;;;;;6261792;22;20162;-94
2021/09/19 08:55:12;;;;;;;20.37;16.23;;;19.60;99.90;;;;;;6287453;22;20136;-92
2021/09/19 08:57:40;;;;;;;19.97;16.80;;;19.60;99.90;;;;;;6262161;22;20188;-85
2021/09/19 09:00:10;;;;;;;22.47;16.63;;;19.70;99.90;;;;;;6262450;22;20150;-93
2021/09/19 09:02:50;;;;;;;19.13;17.03;;;19.70;99.90;;;;;;6262062;22;20142;-92
2021/09/19 09:05:27;;;;;;;18.37;15.27;;;20.10;99.90;;;;;;6260191;22;20150;-87
2021/09/19 09:07:58;;;;;;;19.60;15.47;;;20.20;99.90;;;;;;6287583;22;20225;-90
2021/09/19 09:10:43;;;;;;;18.63;15.10;;;20.50;99.90;;;;;;6260979;22;20143;-91
2021/09/19 09:13:15;;;;;;;19.17;15.07;;;20.60;99.90;;;;;;6260247;22;20145;-89
2021/09/19 09:16:06;;;;;;;17.27;13.93;;;20.80;99.90;;;;;;6286810;22;20221;-91
2021/09/19 09:18:45;;;;;;;17.30;14.23;;;21.10;99.90;;;;;;6256718;22;20201;-92
2021/09/19 09:21:19;;;;;;;16.80;13.30;;;21.10;99.90;;;;;;6258606;22;20160;-91
2021/09/19 09:23:55;;;;;;;16.20;13.60;;;21.30;99.90;;;;;;6259430;22;20166;-92
2021/09/19 09:26:32;;;;;;;17.07;13.27;;;21.40;99.90;;;;;;6286763;22;20147;-92
2021/09/19 09:29:18;;;;;;;15.27;11.90;;;21.60;99.90;;;;;;6287290;22;20130;-89
2021/09/19 09:31:48;;;;;;;13.93;11.60;;;21.70;99.90;;;;;;6260093;22;20170;-89
2021/09/19 09:34:13;;;;;;;15.27;11.43;;;21.80;99.90;;;;;;6259947;22;20146;-91
2021/09/19 09:36:48;;;;;;;15.83;11.83;;;22.00;99.90;;;;;;6286862;22;20131;-92
2021/09/19 09:39:32;;;;;;;13.93;11.27;;;22.10;99.90;;;;;;6287717;22;20148;-92
2021/09/19 09:42:18;;;;;;;13.67;11.33;;;22.20;99.90;;;;;;6287249;22;20142;-90
2021/09/19 09:44:49;;;;;;;13.87;11.37;;;22.20;99.90;;;;;;6286244;22;20678;-89
2021/09/19 09:47:19;;;;;;;12.73;10.80;;;22.30;99.90;;;;;;6259554;22;20151;-92
2021/09/19 09:49:51;;;;;;;12.77;9.97;;;22.40;99.90;;;;;;6259482;22;20167;-88
2021/09/19 09:52:19;;;;;;;16.70;10.50;;;22.60;99.90;;;;;;6285060;22;20152;-91
2021/09/19 09:54:52;;;;;;;12.30;10.00;;;22.70;99.90;;;;;;6287637;22;20130;-92
2021/09/19 09:57:43;;;;;;;11.73;10.30;;;22.90;99.90;;;;;;6289893;22;20193;-88
2021/09/19 10:00:17;;;;;;;12.60;10.13;;;22.90;99.90;;;;;;6243066;22;20150;-93
2021/09/19 10:02:45;;;;;;;10.93;9.33;;;23.10;99.90;;;;;;6283724;22;20142;-90
2021/09/19 10:05:14;;;;;;;11.90;9.00;;;23.10;99.90;;;;;;6282477;22;20141;-92
2021/09/19 10:07:41;;;;;;;11.40;9.50;;;23.20;99.90;;;;;;6283313;22;20135;-94
2021/09/19 10:10:12;;;;;;;12.00;9.27;;;23.30;99.90;;;;;;6286764;22;20587;-87
2021/09/19 10:12:39;;;;;;;11.97;8.80;;;23.30;99.90;;;;;;6287310;22;20141;-86
2021/09/19 10:15:06;;;;;;;10.63;9.20;;;23.60;99.90;;;;;;6262340;22;20143;-87
2021/09/19 10:17:33;;;;;;;13.13;9.33;;;23.90;99.90;;;;;;6287689;22;20188;-88
2021/09/19 10:20:03;;;;;;;10.53;8.30;;;24.00;99.70;;;;;;6288388;22;20202;-87
2021/09/19 10:22:47;;;;;;;13.17;9.03;;;24.00;99.30;;;;;;6288550;22;20153;-92
2021/09/19 10:25:34;;;;;;;8.60;7.47;;;24.10;99.20;;;;;;6261821;22;20218;-92
2021/09/19 10:28:39;;;;;;;10.80;8.27;;;24.30;99.40;;;;;;6288030;22;20131;-80
2021/09/19 10:31:18;;;;;;;10.10;8.23;;;24.40;98.80;;;;;;6134379;23;20296;-86
2021/09/19 10:34:01;;;;;;;10.03;8.53;;;24.50;98.80;;;;;;6274117;22;20177;-83
2021/09/19 10:36:29;;;;;;;13.63;7.67;;;24.50;98.20;;;;;;6260249;22;20161;-86
2021/09/19 10:39:24;;;;;;;9.03;7.27;;;24.60;98.50;;;;;;6287127;22;20170;-87
2021/09/19 10:42:15;;;;;;;10.87;7.53;;;25.00;97.90;;;;;;6259451;22;20154;-84
2021/09/19 10:44:50;;;;;;;9.47;7.77;;;25.30;97.40;;;;;;6287344;22;20135;-94
2021/09/19 10:47:27;;;;;;;8.80;7.50;;;25.70;96.70;;;;;;6261590;22;20180;-93
2021/09/19 10:50:12;;;;;;;9.83;7.87;;;25.80;96.70;;;;;;6288413;22;20219;-92
2021/09/19 10:52:41;;;;;;;10.83;7.10;;;26.10;95.70;;;;;;6261126;22;20161;-93
2021/09/19 10:55:19;;;;;;;8.00;6.77;;;26.40;95.70;;;;;;6288220;22;20127;-92
2021/09/19 10:58:12;;;;;;;8.40;6.70;;;26.80;94.50;;;;;;6284717;22;20253;-92
2021/09/19 11:00:43;;;;;;;9.70;6.80;;;26.80;94.50;;;;;;6285892;22;20139;-95
2021/09/19 11:03:10;;;;;;;7.23;6.47;;;27.00;94.50;;;;;;6286983;22;20177;-93
2021/09/19 11:05:44;;;;;;;11.07;7.63;;;27.50;93.30;;;;;;6260000;22;20216;-94
2021/09/19 11:08:09;;;;;;;7.20;6.50;;;28.20;92.60;;;;;;6288151;22;20139;-87
2021/09/19 11:10:55;;;;;;;8.30;6.70;;;28.40;91.90;;;;;;6261759;22;20666;-88
2021/09/19 11:13:38;;;;;;;9.67;6.53;;;28.80;91.40;;;;;;6261763;22;20154;-83
2021/09/19 11:16:04;;;;;;;6.40;5.80;;;29.00;90.90;;;;;;6288332;22;20131;-89
2021/09/19 11:18:33;;;;;;;7.90;6.23;;;29.30;90.90;;;;;;6287099;22;20196;-84
2021/09/19 11:21:10;;;;;;;8.40;5.32;;;29.90;89.60;;;;;;6260116;22;20178;-86
2021/09/19 11:23:45;;;;;;;6.05;5.25;;;30.10;89.10;;;;;;6287432;22;20138;-86
2021/09/19 11:26:11;;;;;;;7.00;5.60;;;30.60;88.60;;;;;;6259804;22;20157;-78
2021/09/19 11:28:38;;;;;;;5.82;5.22;;;30.80;86.10;;;;;;6259735;22;20154;-80
2021/09/19 11:31:07;;;;;;;6.20;5.60;;;30.80;85.00;;;;;;6287908;22;20209;-82
2021/09/19 11:33:34;;;;;;;7.13;5.28;;;30.80;83.20;;;;;;6287673;22;20143;-84
2021/09/19 11:36:06;;;;;;;5.82;5.22;;;31.00;82.40;;;;;;6259662;22;20567;-85
2021/09/19 11:38:37;;;;;;;6.80;6.15;;;31.10;83.50;;;;;;6286618;22;20615;-78
2021/09/19 11:41:03;;;;;;;6.45;5.78;;;31.30;81.30;;;;;;6286097;22;20138;-86
2021/09/19 11:43:41;;;;;;;7.55;5.57;;;31.40;81.10;;;;;;6286900;22;20134;-84
2021/09/19 11:46:10;;;;;;;7.07;6.10;;;31.30;81.50;;;;;;6286476;22;20221;-85
2021/09/19 11:48:38;;;;;;;6.00;5.35;;;32.00;80.10;;;;;;6286447;22;20142;-85
2021/09/19 11:51:04;;;;;;;8.05;5.32;;;32.60;78.80;;;;;;6265810;22;20230;-80
2021/09/19 11:53:30;;;;;;;7.28;5.80;;;33.10;77.90;;;;;;6264758;22;20135;-82
2021/09/19 11:55:57;;;;;;;8.25;6.63;;;33.50;75.60;;;;;;6288943;22;20200;-93
2021/09/19 11:58:25;;;;;;;6.65;6.00;;;33.90;74.40;;;;;;6287882;22;20182;-94
2021/09/19 12:01:03;;;;;;;6.00;5.38;;;34.20;72.70;;;;;;6260259;22;20139;-91
2021/09/19 12:03:30;;;;;;;6.93;6.32;;;33.80;71.70;;;;;;6286494;22;20162;-84
2021/09/19 12:06:00;;;;;;;5.60;5.10;;;33.50;72.00;;;;;;6286804;22;20131;-88
2021/09/19 12:08:29;;;;;;;6.15;5.07;;;33.30;71.60;;;;;;6260967;22;20146;-89
2021/09/19 12:11:03;;;;;;;6.53;4.88;;;32.80;72.80;;;;;;6287066;22;20131;-84
2021/09/19 12:13:31;;;;;;;7.78;4.85;;;32.20;72.90;;;;;;6260709;22;20555;-86
2021/09/19 12:16:13;;;;;;;4.95;4.45;;;31.90;72.10;;;;;;6259195;22;20476;-92
2021/09/19 12:18:42;;;;;;;4.38;3.92;;;32.10;72.30;;;;;;6287539;22;20200;-90
2021/09/19 12:21:28;;;;;;;4.50;4.10;;;32.20;72.70;;;;;;6289189;22;20141;-91
2021/09/19 12:24:00;;;;;;;4.32;3.92;;;32.10;71.00;;;;;;6289425;22;20232;-89
2021/09/19 12:26:31;;;;;;;5.63;4.82;;;31.60;72.80;;;;;;6293707;22;20138;-85
2021/09/19 12:28:59;;;;;;;4.78;4.00;;;32.00;71.00;;;;;;6301748;22;20131;-91
2021/09/19 12:31:39;;;;;;;4.78;3.95;;;32.50;69.10;;;;;;6300453;22;20156;-94
2021/09/19 12:34:07;;;;;;;5.30;4.53;;;33.20;69.00;;;;;;6263593;22;20146;-94
2021/09/19 12:36:45;;;;;;;4.70;4.13;;;33.60;67.70;;;;;;6290397;22;20139;-94